createdAt,value
2023-02-06T00:00:38.089Z,65.09
2023-02-06T00:03:05.423Z,64.99
2023-02-06T00:05:32.531Z,65.16
2023-02-06T00:07:59.392Z,65.77
2023-02-06T00:10:26.282Z,65.97
2023-02-06T00:12:53.039Z,65.75
2023-02-06T00:15:20.133Z,65.53
2023-02-06T00:17:46.943Z,65.26
2023-02-06T00:20:14.267Z,65.03
2023-02-06T00:22:41.137Z,64.81
2023-02-06T00:25:08.208Z,64.90
2023-02-06T00:27:35.106Z,65.32
2023-02-06T00:30:02.238Z,64.92
2023-02-06T00:32:29.055Z,64.91
2023-02-06T00:34:55.819Z,65.07
2023-02-06T00:37:22.666Z,65.50
2023-02-06T00:39:49.453Z,65.43
2023-02-06T00:42:16.170Z,65.35
2023-02-06T00:44:42.902Z,65.45
2023-02-06T00:47:09.644Z,65.77
2023-02-06T00:49:36.431Z,66.20
2023-02-06T00:52:03.534Z,66.19
2023-02-06T00:54:30.286Z,66.54
2023-02-06T00:56:57.943Z,66.82
2023-02-06T00:59:24.674Z,67.20
2023-02-06T01:01:51.536Z,67.62
2023-02-06T01:04:18.340Z,67.63
2023-02-06T01:06:45.239Z,67.59
2023-02-06T01:09:12.095Z,67.21
2023-02-06T01:11:38.860Z,66.94
2023-02-06T01:14:05.582Z,66.75
2023-02-06T01:16:32.346Z,66.84
2023-02-06T01:18:59.151Z,66.61
2023-02-06T01:21:25.861Z,66.57
2023-02-06T01:23:54.599Z,66.49
2023-02-06T01:26:24.650Z,66.59
2023-02-06T01:28:51.521Z,66.85
2023-02-06T01:31:24.084Z,66.55
2023-02-06T01:33:51.606Z,66.67
2023-02-06T01:36:19.957Z,66.98
2023-02-06T01:38:48.506Z,67.12
2023-02-06T01:41:17.275Z,67.30
2023-02-06T01:43:47.509Z,67.67
2023-02-06T01:46:14.389Z,67.74
2023-02-06T01:48:48.773Z,68.16
2023-02-06T01:51:19.451Z,68.06
2023-02-06T01:53:50.454Z,68.08
2023-02-06T01:56:19.697Z,68.05
2023-02-06T01:58:51.515Z,68.47
2023-02-06T02:01:19.772Z,68.46
2023-02-06T02:03:49.866Z,68.20
2023-02-06T02:06:21.155Z,67.57
2023-02-06T02:08:50.899Z,67.47
2023-02-06T02:11:22.312Z,67.23
2023-02-06T02:13:52.157Z,67.09
2023-02-06T02:16:26.853Z,67.14
2023-02-06T02:19:24.370Z,67.45
2023-02-06T02:22:07.571Z,67.53
2023-02-06T02:24:53.191Z,67.73
2023-02-06T02:27:36.242Z,68.13
2023-02-06T02:30:33.975Z,67.87
2023-02-06T02:33:13.078Z,67.95
2023-02-06T02:36:10.856Z,68.36
2023-02-06T02:39:02.377Z,68.18
2023-02-06T02:41:43.653Z,68.35
2023-02-06T02:44:14.292Z,68.39
2023-02-06T02:46:44.350Z,68.53
2023-02-06T02:49:15.640Z,69.06
2023-02-06T02:51:43.549Z,69.36
2023-02-06T02:54:10.714Z,69.08
2023-02-06T02:56:38.602Z,68.63
2023-02-06T02:59:05.642Z,68.03
2023-02-06T03:01:39.561Z,68.12
2023-02-06T03:04:20.724Z,68.60
2023-02-06T03:06:48.884Z,68.58
2023-02-06T03:09:25.404Z,68.40
2023-02-06T03:12:04.448Z,68.17
2023-02-06T03:14:36.510Z,67.43
2023-02-06T03:17:07.264Z,67.15
2023-02-06T03:19:44.167Z,66.84
2023-02-06T03:22:12.313Z,67.30
2023-02-06T03:24:40.181Z,67.52
2023-02-06T03:27:13.876Z,67.44
2023-02-06T03:29:42.567Z,67.61
2023-02-06T03:32:17.252Z,68.04
2023-02-06T03:34:51.049Z,68.30
2023-02-06T03:37:17.967Z,68.58
2023-02-06T03:39:44.865Z,68.86
2023-02-06T03:45:14.050Z,68.88
2023-02-06T03:47:43.954Z,69.04
2023-02-06T03:50:14.221Z,69.09
2023-02-06T03:52:46.071Z,69.36
2023-02-06T03:55:17.639Z,69.24
2023-02-06T03:57:47.791Z,69.12
2023-02-06T04:00:15.346Z,68.72
2023-02-06T04:02:42.856Z,69.09
2023-02-06T04:05:09.821Z,69.28
2023-02-06T04:07:36.710Z,68.98
2023-02-06T04:10:04.448Z,68.90
2023-02-06T04:12:31.520Z,68.23
2023-02-06T04:14:58.374Z,68.12
2023-02-06T04:17:43.104Z,67.80
2023-02-06T04:20:12.539Z,68.15
2023-02-06T04:22:40.862Z,67.70
2023-02-06T04:25:07.852Z,67.39
2023-02-06T04:27:34.602Z,67.34
2023-02-06T04:30:01.599Z,67.15
2023-02-06T04:32:28.453Z,66.44
2023-02-06T04:34:55.237Z,66.01
2023-02-06T04:37:22.040Z,65.36
2023-02-06T04:39:48.988Z,65.05
2023-02-06T04:42:15.744Z,64.77
2023-02-06T04:44:43.753Z,65.03
2023-02-06T04:47:10.529Z,65.83
2023-02-06T04:49:37.201Z,65.98
2023-02-06T04:52:04.126Z,65.80
2023-02-06T04:54:32.684Z,66.22
2023-02-06T04:56:59.581Z,66.70
2023-02-06T04:59:27.141Z,66.82
2023-02-06T05:01:54.016Z,66.64
2023-02-06T05:04:20.760Z,66.37
2023-02-06T05:06:48.984Z,66.37
2023-02-06T05:09:15.937Z,66.75
2023-02-06T05:11:42.808Z,66.93
2023-02-06T05:14:09.557Z,66.73
2023-02-06T05:16:36.237Z,66.40
2023-02-06T05:19:03.119Z,66.54
2023-02-06T05:21:29.942Z,66.29
2023-02-06T05:23:56.649Z,66.30
2023-02-06T05:26:23.753Z,65.66
2023-02-06T05:28:50.687Z,66.02
2023-02-06T05:31:20.391Z,66.21
2023-02-06T05:33:52.500Z,66.96
2023-02-06T05:36:20.999Z,67.54
2023-02-06T05:38:48.970Z,67.42
2023-02-06T05:41:17.136Z,67.96
2023-02-06T05:43:44.471Z,68.47
2023-02-06T05:46:13.102Z,68.64
2023-02-06T05:48:40.886Z,68.56
2023-02-06T05:51:08.327Z,69.28
2023-02-06T05:53:35.245Z,69.72
2023-02-06T05:56:02.319Z,69.41
2023-02-06T05:58:29.068Z,69.21
2023-02-06T06:00:55.818Z,69.42
2023-02-06T06:03:22.614Z,69.37
2023-02-06T06:05:49.686Z,69.15
2023-02-06T06:08:16.502Z,69.08
2023-02-06T06:10:43.275Z,69.08
2023-02-06T06:13:10.081Z,69.29
2023-02-06T06:15:37.643Z,69.42
2023-02-06T06:18:04.987Z,69.07
2023-02-06T06:20:31.709Z,69.23
2023-02-06T06:22:58.470Z,69.54
2023-02-06T06:25:25.366Z,70.18
2023-02-06T06:27:52.203Z,70.10
2023-02-06T06:30:19.072Z,69.88
2023-02-06T06:32:45.834Z,69.63
2023-02-06T06:35:12.726Z,69.58
2023-02-06T06:37:39.481Z,69.35
2023-02-06T06:40:06.773Z,68.93
2023-02-06T06:42:33.489Z,68.87
2023-02-06T06:45:00.211Z,68.56
2023-02-06T06:47:27.136Z,68.03
2023-02-06T06:49:53.868Z,68.10
2023-02-06T06:52:25.249Z,69.06
2023-02-06T06:54:53.532Z,69.67
2023-02-06T06:57:21.789Z,69.55
2023-02-06T06:59:49.042Z,69.32
2023-02-06T07:02:16.352Z,69.01
2023-02-06T07:04:43.356Z,68.93
2023-02-06T07:07:10.332Z,69.23
2023-02-06T07:09:37.092Z,68.95
2023-02-06T07:12:04.267Z,68.88
2023-02-06T07:14:31.034Z,69.56
2023-02-06T07:16:59.254Z,69.59
2023-02-06T07:19:26.117Z,69.37
2023-02-06T07:21:54.089Z,69.38
2023-02-06T07:24:21.012Z,68.98
2023-02-06T07:26:47.796Z,68.85
2023-02-06T07:29:14.556Z,69.10
2023-02-06T07:31:41.635Z,68.76
2023-02-06T07:34:08.768Z,68.93
2023-02-06T07:36:35.756Z,69.62
2023-02-06T07:39:04.418Z,69.13
2023-02-06T07:41:31.188Z,68.93
2023-02-06T07:43:58.152Z,69.02
2023-02-06T07:46:25.048Z,68.95
2023-02-06T07:48:51.862Z,68.01
2023-02-06T07:51:18.959Z,67.28
2023-02-06T07:53:45.742Z,65.99
2023-02-06T07:56:15.403Z,64.68
2023-02-06T07:58:42.376Z,62.84
2023-02-06T08:01:10.060Z,62.17
2023-02-06T08:03:37.260Z,61.47
2023-02-06T08:06:09.432Z,61.25
2023-02-06T08:08:36.207Z,60.87
2023-02-06T08:11:06.489Z,59.66
2023-02-06T08:13:33.920Z,59.67
2023-02-06T08:16:14.053Z,59.10
2023-02-06T08:18:41.214Z,58.86
2023-02-06T08:21:11.794Z,58.83
2023-02-06T08:23:39.035Z,58.75
2023-02-06T08:26:09.588Z,57.81
2023-02-06T08:28:38.213Z,57.47
2023-02-06T08:31:15.105Z,55.53
2023-02-06T08:33:42.115Z,53.86
2023-02-06T08:36:09.770Z,51.92
2023-02-06T08:38:36.898Z,50.97
2023-02-06T08:41:05.055Z,49.16
2023-02-06T08:43:33.198Z,48.16
2023-02-06T08:46:00.154Z,46.70
2023-02-06T08:48:27.959Z,45.89
2023-02-06T08:51:04.474Z,45.16
2023-02-06T08:53:31.316Z,43.17
2023-02-06T08:56:02.560Z,42.08
2023-02-06T08:58:44.896Z,40.12
2023-02-06T09:01:14.531Z,40.30
2023-02-06T09:03:41.901Z,38.89
2023-02-06T09:06:10.590Z,37.88
2023-02-06T09:08:38.740Z,36.06
2023-02-06T09:11:06.778Z,35.26
2023-02-06T09:13:33.996Z,35.09
2023-02-06T09:16:00.850Z,34.11
2023-02-06T09:18:27.587Z,33.94
2023-02-06T09:21:11.937Z,33.87
2023-02-06T09:23:39.551Z,33.03
2023-02-06T09:26:06.865Z,32.51
2023-02-06T09:28:33.856Z,32.51
2023-02-06T09:31:00.816Z,32.74
2023-02-06T09:33:27.680Z,32.06
2023-02-06T09:36:05.530Z,31.78
2023-02-06T09:38:32.659Z,32.43
2023-02-06T09:41:02.228Z,33.09
2023-02-06T09:43:31.993Z,33.29
2023-02-06T09:46:03.828Z,32.96
2023-02-06T09:48:34.887Z,33.39
2023-02-06T09:51:33.901Z,33.50
2023-02-06T09:54:18.558Z,33.16
2023-02-06T09:56:55.326Z,33.15
2023-02-06T09:59:29.633Z,34.10
2023-02-06T10:02:19.390Z,34.18
2023-02-06T10:05:08.750Z,33.98
2023-02-06T10:07:57.311Z,34.08
2023-02-06T10:10:41.445Z,33.74
2023-02-06T10:13:39.275Z,34.21
2023-02-06T10:16:19.965Z,33.90
2023-02-06T10:18:55.235Z,33.86
2023-02-06T10:21:36.072Z,34.04
2023-02-06T10:24:18.113Z,34.87
2023-02-06T10:26:48.074Z,34.59
2023-02-06T10:29:23.918Z,35.19
2023-02-06T10:32:11.026Z,35.47
2023-02-06T10:35:00.658Z,35.43
2023-02-06T10:37:58.204Z,36.46
2023-02-06T10:40:46.658Z,36.09
2023-02-06T10:43:40.914Z,36.16
2023-02-06T10:46:20.545Z,35.91
2023-02-06T10:48:58.196Z,36.06
2023-02-06T10:51:32.260Z,36.28
2023-02-06T10:54:01.921Z,36.13
2023-02-06T10:56:36.689Z,35.76
2023-02-06T10:59:11.504Z,35.66
2023-02-06T11:01:41.019Z,35.90
2023-02-06T11:04:18.835Z,35.05
2023-02-06T11:06:47.039Z,35.19
2023-02-06T11:09:14.716Z,34.46
2023-02-06T11:11:48.576Z,35.05
2023-02-06T11:14:34.165Z,36.02
2023-02-06T11:17:01.452Z,35.17
2023-02-06T11:19:32.095Z,34.49
2023-02-06T11:22:16.308Z,35.02
2023-02-06T11:25:06.139Z,35.07
2023-02-06T11:27:35.023Z,35.21
2023-02-06T11:30:08.436Z,35.29
2023-02-06T11:32:41.211Z,35.47
2023-02-06T11:35:32.333Z,35.88
2023-02-06T11:38:14.665Z,36.69
2023-02-06T11:40:42.012Z,37.14
2023-02-06T11:43:09.770Z,38.04
2023-02-06T11:45:37.165Z,38.24
2023-02-06T11:48:07.295Z,37.93
2023-02-06T11:50:36.815Z,37.64
2023-02-06T11:53:17.070Z,38.35
2023-02-06T11:55:45.637Z,37.97
2023-02-06T11:58:12.364Z,38.07
2023-02-06T12:00:41.549Z,38.13
2023-02-06T12:03:30.683Z,37.76
2023-02-06T12:06:04.186Z,38.54
2023-02-06T12:08:51.579Z,38.65
2023-02-06T12:11:28.220Z,38.48
2023-02-06T12:14:00.990Z,38.48
2023-02-06T12:16:29.028Z,38.83
2023-02-06T12:18:57.894Z,38.53
2023-02-06T12:21:38.232Z,37.86
2023-02-06T12:24:19.672Z,37.56
2023-02-06T12:26:48.323Z,35.42
2023-02-06T12:29:23.038Z,35.27
2023-02-06T12:32:08.240Z,35.00
2023-02-06T12:34:53.250Z,34.58
2023-02-06T12:37:51.287Z,34.28
2023-02-06T12:40:27.001Z,32.76
2023-02-06T12:43:01.733Z,32.87
2023-02-06T12:45:40.014Z,31.92
2023-02-06T12:48:14.621Z,31.42
2023-02-06T12:50:49.226Z,31.08
2023-02-06T12:53:28.792Z,31.22
2023-02-06T12:56:04.870Z,30.32
2023-02-06T12:58:48.984Z,30.36
2023-02-06T13:01:34.706Z,30.39
2023-02-06T13:04:09.981Z,30.03
2023-02-06T13:06:44.181Z,30.03
2023-02-06T13:09:21.330Z,29.62
2023-02-06T13:11:48.399Z,28.56
2023-02-06T13:14:18.454Z,28.33
2023-02-06T13:16:51.398Z,27.77
2023-02-06T13:19:23.386Z,28.36
2023-02-06T13:21:53.298Z,28.24
2023-02-06T13:24:21.041Z,28.36
2023-02-06T13:26:51.563Z,28.52
2023-02-06T13:29:22.895Z,28.46
2023-02-06T13:31:49.778Z,27.74
2023-02-06T13:34:18.558Z,27.55
2023-02-06T13:36:50.158Z,27.68
2023-02-06T13:39:28.587Z,27.98
2023-02-06T13:41:56.549Z,29.07
2023-02-06T13:44:30.738Z,29.94
2023-02-06T13:47:16.330Z,31.07
2023-02-06T13:50:14.085Z,30.74
2023-02-06T13:53:07.237Z,30.87
2023-02-06T13:55:55.202Z,31.17
2023-02-06T13:58:48.276Z,30.79
2023-02-06T14:01:20.761Z,30.69
2023-02-06T14:03:51.193Z,31.30
2023-02-06T14:06:33.627Z,31.44
2023-02-06T14:09:02.512Z,30.63
2023-02-06T14:11:59.526Z,31.52
2023-02-06T14:14:57.417Z,31.08
2023-02-06T14:17:37.887Z,31.25
2023-02-06T14:20:20.055Z,30.84
2023-02-06T14:23:05.853Z,31.42
2023-02-06T14:25:52.748Z,31.48
2023-02-06T14:28:23.926Z,31.82
2023-02-06T14:30:58.442Z,31.82
2023-02-06T14:33:40.934Z,32.82
2023-02-06T14:36:19.056Z,33.72
2023-02-06T14:39:16.535Z,33.50
2023-02-06T14:41:43.354Z,33.97
2023-02-06T14:44:14.032Z,34.92
2023-02-06T14:46:42.714Z,35.22
2023-02-06T14:49:16.219Z,35.41
2023-02-06T14:51:43.102Z,35.95
2023-02-06T14:54:28.964Z,36.08
2023-02-06T14:56:58.322Z,37.07
2023-02-06T14:59:25.603Z,38.36
2023-02-06T15:01:54.697Z,38.95
2023-02-06T15:04:27.178Z,39.98
2023-02-06T15:06:57.488Z,40.93
2023-02-06T15:09:30.764Z,42.04
2023-02-06T15:12:03.397Z,43.36
2023-02-06T15:14:33.612Z,44.48
2023-02-06T15:17:02.626Z,45.36
2023-02-06T15:19:35.740Z,45.83
2023-02-06T15:22:18.269Z,46.69
2023-02-06T15:25:02.171Z,47.71
2023-02-06T15:27:37.726Z,48.87
2023-02-06T15:30:22.092Z,49.69
2023-02-06T15:32:51.328Z,50.28
2023-02-06T15:35:20.154Z,50.84
2023-02-06T15:37:47.297Z,51.42
2023-02-06T15:40:25.866Z,51.92
2023-02-06T15:42:53.591Z,53.07
2023-02-06T15:45:24.934Z,53.71
2023-02-06T15:47:53.454Z,54.17
2023-02-06T15:50:24.876Z,54.87
2023-02-06T15:52:52.372Z,55.48
2023-02-06T15:55:29.991Z,56.04
2023-02-06T15:57:58.330Z,56.55
2023-02-06T16:00:36.166Z,56.59
2023-02-06T16:03:07.927Z,56.65
2023-02-06T16:05:39.986Z,57.20
2023-02-06T16:08:16.109Z,57.65
2023-02-06T16:10:45.521Z,58.40
2023-02-06T16:13:19.568Z,58.98
2023-02-06T16:16:01.922Z,59.20
2023-02-06T16:18:33.112Z,59.23
2023-02-06T16:21:15.682Z,59.60
2023-02-06T16:24:03.387Z,59.75
2023-02-06T16:26:38.965Z,60.14
2023-02-06T16:29:09.189Z,60.54
2023-02-06T16:31:39.057Z,60.78
2023-02-06T16:34:30.619Z,61.06
2023-02-06T16:36:57.466Z,61.39
2023-02-06T16:39:24.193Z,61.69
2023-02-06T16:41:52.402Z,61.89
2023-02-06T16:44:20.275Z,61.90
2023-02-06T16:46:47.075Z,61.55
2023-02-06T16:49:20.039Z,61.50
2023-02-06T16:51:49.436Z,61.60
2023-02-06T16:54:20.867Z,61.53
2023-02-06T16:56:47.867Z,61.32
2023-02-06T16:59:14.660Z,61.03
2023-02-06T17:01:41.586Z,61.27
2023-02-06T17:04:08.527Z,61.50
2023-02-06T17:06:36.193Z,61.27
2023-02-06T17:09:09.278Z,60.62
2023-02-06T17:11:37.244Z,60.33
2023-02-06T17:14:04.155Z,60.47
2023-02-06T17:16:32.060Z,60.60
2023-02-06T17:18:58.821Z,60.93
2023-02-06T17:21:28.444Z,61.03
2023-02-06T17:23:55.341Z,61.59
2023-02-06T17:26:23.591Z,62.16
2023-02-06T17:28:51.785Z,62.60
2023-02-06T17:31:19.197Z,62.83
2023-02-06T17:33:46.391Z,62.65
2023-02-06T17:36:18.828Z,63.05
2023-02-06T17:38:45.656Z,63.49
2023-02-06T17:41:13.720Z,64.02
2023-02-06T17:43:40.847Z,63.92
2023-02-06T17:46:07.746Z,64.00
2023-02-06T17:48:36.805Z,64.31
2023-02-06T17:51:05.711Z,64.47
2023-02-06T17:53:33.514Z,64.72
2023-02-06T17:56:12.945Z,64.60
2023-02-06T17:58:42.687Z,64.44
2023-02-06T18:01:12.906Z,64.03
2023-02-06T18:03:40.814Z,63.62
2023-02-06T18:06:08.189Z,63.64
2023-02-06T18:08:35.030Z,63.59
2023-02-06T18:11:08.003Z,63.86
2023-02-06T18:13:35.081Z,64.02
2023-02-06T18:16:01.825Z,63.81
2023-02-06T18:18:28.607Z,63.65
2023-02-06T18:20:55.480Z,63.51
2023-02-06T18:23:22.592Z,63.19
2023-02-06T18:25:49.577Z,63.50
2023-02-06T18:28:18.082Z,63.28
2023-02-06T18:30:45.865Z,63.02
2023-02-06T18:33:12.932Z,63.03
2023-02-06T18:35:41.589Z,63.05
2023-02-06T18:38:10.148Z,63.31
2023-02-06T18:40:39.696Z,63.13
2023-02-06T18:43:08.497Z,63.03
2023-02-06T18:45:38.903Z,63.16
2023-02-06T18:48:09.268Z,63.37
2023-02-06T18:50:40.366Z,63.63
2023-02-06T18:53:08.470Z,63.99
2023-02-06T18:55:37.581Z,64.12
2023-02-06T18:58:06.248Z,63.82
2023-02-06T19:00:36.326Z,63.61
2023-02-06T19:03:06.137Z,63.78
2023-02-06T19:05:35.964Z,63.25
2023-02-06T19:08:02.836Z,63.06
2023-02-06T19:10:29.675Z,62.78
2023-02-06T19:12:56.368Z,62.76
2023-02-06T19:15:23.293Z,63.16
2023-02-06T19:17:50.503Z,63.84
2023-02-06T19:20:17.616Z,64.09
2023-02-06T19:22:44.550Z,64.47
2023-02-06T19:25:14.448Z,64.55
2023-02-06T19:27:41.814Z,64.53
2023-02-06T19:30:09.290Z,64.71
2023-02-06T19:32:36.692Z,65.07
2023-02-06T19:35:04.229Z,65.09
2023-02-06T19:37:31.906Z,65.19
2023-02-06T19:39:59.228Z,65.60
2023-02-06T19:42:26.268Z,65.98
2023-02-06T19:44:54.835Z,65.82
2023-02-06T19:47:22.733Z,65.76
2023-02-06T19:49:52.386Z,65.22
2023-02-06T19:52:20.240Z,64.38
2023-02-06T19:54:48.025Z,63.70
2023-02-06T19:57:16.027Z,63.14
2023-02-06T19:59:58.538Z,63.11
2023-02-06T20:02:25.277Z,62.77
2023-02-06T20:04:52.286Z,62.87
2023-02-06T20:07:19.133Z,62.91
2023-02-06T20:09:45.929Z,63.16
2023-02-06T20:12:12.919Z,62.90
2023-02-06T20:14:39.731Z,62.42
2023-02-06T20:17:06.583Z,62.27
2023-02-06T20:19:33.713Z,62.39
2023-02-06T20:22:01.155Z,62.36
2023-02-06T20:24:30.456Z,62.40
2023-02-06T20:27:00.733Z,62.65
2023-02-06T20:29:31.343Z,62.67
2023-02-06T20:31:58.928Z,62.62
2023-02-06T20:34:26.956Z,62.73
2023-02-06T20:36:55.521Z,62.42
2023-02-06T20:39:23.773Z,62.15
2023-02-06T20:41:51.018Z,62.46
2023-02-06T20:44:19.393Z,62.09
2023-02-06T20:46:46.698Z,62.25
2023-02-06T20:49:16.983Z,62.39
2023-02-06T20:51:43.908Z,62.38
2023-02-06T20:54:11.821Z,61.91
2023-02-06T20:56:39.978Z,62.30
2023-02-06T20:59:08.442Z,62.63
2023-02-06T21:01:35.350Z,62.77
2023-02-06T21:04:05.665Z,62.70
2023-02-06T21:06:34.612Z,62.77
2023-02-06T21:09:03.103Z,62.64
2023-02-06T21:11:34.833Z,62.79
2023-02-06T21:14:04.465Z,62.91
2023-02-06T21:16:33.150Z,63.12
2023-02-06T21:19:01.384Z,63.03
2023-02-06T21:21:29.121Z,62.48
2023-02-06T21:23:56.291Z,61.96
2023-02-06T21:26:24.805Z,61.43
2023-02-06T21:28:52.219Z,61.34
2023-02-06T21:31:22.980Z,61.15
2023-02-06T21:33:51.424Z,61.81
2023-02-06T21:36:21.205Z,61.99
2023-02-06T21:38:48.196Z,62.14
2023-02-06T21:41:18.550Z,62.01
2023-02-06T21:43:46.086Z,62.48
2023-02-06T21:46:13.484Z,62.03
2023-02-06T21:48:41.212Z,62.05
2023-02-06T21:51:12.565Z,61.97
2023-02-06T21:53:40.852Z,61.58
2023-02-06T21:56:11.614Z,61.62
2023-02-06T21:58:38.580Z,61.63
2023-02-06T22:01:08.834Z,61.71
2023-02-06T22:03:35.805Z,61.79
2023-02-06T22:06:08.839Z,61.68
2023-02-06T22:08:36.878Z,61.74
2023-02-06T22:11:13.272Z,61.70
2023-02-06T22:13:41.028Z,61.91
2023-02-06T22:16:09.571Z,62.39
2023-02-06T22:18:36.507Z,62.42
2023-02-06T22:21:13.143Z,62.26
2023-02-06T22:23:40.855Z,62.37
2023-02-06T22:26:10.662Z,62.70
2023-02-06T22:28:37.434Z,63.03
2023-02-06T22:31:10.092Z,63.16
2023-02-06T22:33:37.390Z,62.89
2023-02-06T22:36:07.665Z,62.44
2023-02-06T22:38:35.463Z,62.05
2023-02-06T22:41:05.453Z,61.71
2023-02-06T22:43:34.155Z,61.85
2023-02-06T22:46:01.119Z,62.00
2023-02-06T22:48:28.339Z,62.25
2023-02-06T22:50:55.140Z,62.83
2023-02-06T22:53:30.227Z,63.60
2023-02-06T22:56:17.361Z,63.37
2023-02-06T22:58:44.678Z,63.74
2023-02-06T23:01:11.739Z,63.67
2023-02-06T23:03:38.539Z,63.89
2023-02-06T23:06:07.952Z,64.29
2023-02-06T23:08:35.612Z,64.34
2023-02-06T23:11:03.805Z,64.80
2023-02-06T23:13:30.612Z,64.54
2023-02-06T23:15:58.590Z,64.59
2023-02-06T23:18:26.647Z,64.76
2023-02-06T23:20:58.428Z,64.61
2023-02-06T23:23:25.692Z,64.95
2023-02-06T23:25:52.990Z,64.81
2023-02-06T23:28:20.585Z,65.08
2023-02-06T23:30:48.079Z,65.11
2023-02-06T23:33:16.587Z,64.88
2023-02-06T23:35:43.893Z,64.80
2023-02-06T23:38:11.132Z,64.84
2023-02-06T23:40:38.445Z,64.24
2023-02-06T23:43:06.254Z,64.17
2023-02-06T23:45:33.886Z,64.22
2023-02-06T23:48:00.715Z,63.85
2023-02-06T23:50:27.753Z,63.72
2023-02-06T23:52:54.484Z,62.89
2023-02-06T23:55:22.137Z,63.27
2023-02-06T23:57:48.858Z,63.21
